METAR Data
IDs: Format: Raw Decoded Include TAF

Data at: 2150 UTC 18 Sep 2018

KAIT 182135Z AUTO 04003KT 10SM OVC025 16/11 A3001 RMK AO2
KAIT 182115Z AUTO 06006KT 10SM OVC027 16/11 A3000 RMK AO2
KAIT 182055Z AUTO 08004KT 10SM OVC025 16/11 A3000 RMK AO2
KAIT 182035Z AUTO 00000KT 10SM BKN023 OVC028 16/11 A3000 RMK AO2
KAIT 182015Z AUTO 00000KT 10SM BKN023 OVC028 16/11 A3001 RMK AO2
KAIT 181955Z AUTO 06005KT 10SM OVC021 16/11 A3000 RMK AO2
KAIT 181935Z AUTO 07007KT 10SM OVC021 17/11 A2999 RMK AO2
KAIT 181915Z AUTO 07005KT 10SM OVC017 16/11 A3000 RMK AO2
KAIT 181855Z AUTO 07005KT 10SM OVC015 15/11 A3000 RMK AO2
KAIT 181835Z AUTO 05006KT 10SM OVC015 14/11 A3001 RMK AO2
KAIT 181815Z AUTO 05007KT 10SM OVC015 14/11 A3001 RMK AO2
KAIT 181755Z AUTO 05007KT 10SM OVC015 14/11 A3001 RMK AO2
KAIT 181735Z AUTO 05005KT 10SM OVC013 13/11 A3002 RMK AO2
KAIT 181715Z AUTO 08005KT 10SM BKN013 OVC018 13/11 A3002 RMK AO2
KAIT 181655Z AUTO 06005KT 10SM BKN007 OVC013 12/11 A3002 RMK AO2
KAIT 181635Z AUTO 07005KT 10SM OVC007 12/11 A3003 RMK AO2
KAIT 181615Z AUTO 09006KT 7SM OVC005 12/11 A3002 RMK AO2
KAIT 181555Z AUTO 07006KT 10SM OVC005 11/10 A3003 RMK AO2
KAIT 181535Z AUTO 00000KT 10SM OVC005 11/10 A3002 RMK AO2
KAIT 181515Z AUTO 00000KT 10SM OVC005 11/10 A3002 RMK AO2
KAIT 181455Z AUTO 00000KT 10SM OVC003 11/10 A3001 RMK AO2
KAIT 181435Z AUTO 00000KT 10SM OVC003 11/09 A3001 RMK AO2
KAIT 181415Z AUTO 00000KT 10SM OVC003 11/10 A3002 RMK AO2 LTG DSNT S
KAIT 181355Z AUTO 00000KT 10SM OVC003 11/09 A3002 RMK AO2
KAIT 181335Z AUTO 00000KT 10SM OVC003 11/09 A3001 RMK AO2
KAIT 181315Z AUTO 00000KT 2SM BR OVC003 11/09 A3000 RMK AO2
KAIT 181255Z AUTO 00000KT 1 1/4SM BR OVC003 11/09 A3000 RMK AO2
KAIT 181235Z AUTO 00000KT 3/4SM BR OVC003 11/09 A3000 RMK AO2
KAIT 181215Z AUTO 00000KT 1 1/2SM BR OVC003 10/09 A3000 RMK AO2
KAIT 181155Z AUTO 00000KT 3SM BR OVC003 10/09 A3000 RMK AO2
KAIT 181135Z AUTO 00000KT 7SM OVC003 10/09 A2999 RMK AO2
KAIT 181115Z AUTO 00000KT 10SM OVC003 09/08 A2998 RMK AO2
KAIT 181055Z AUTO 00000KT 10SM BKN005 09/08 A2998 RMK AO2
KAIT 181035Z AUTO 00000KT 10SM CLR 08/07 A2996 RMK AO2
KAIT 181015Z AUTO 00000KT 4SM BR SCT075 07/06 A2997 RMK AO2
KAIT 180955Z AUTO 00000KT 7SM SCT075 07/06 A2998 RMK AO2
KAIT 180935Z AUTO 00000KT 10SM SCT075 08/07 A2997 RMK AO2 LTG DSNT SE
KAIT 180915Z AUTO 00000KT 5SM BR OVC075 07/06 A2998 RMK AO2
KAIT 180855Z AUTO 00000KT 1 1/2SM BR OVC075 06/05 A3000 RMK AO2 LTG DSNT S
KAIT 180835Z AUTO 00000KT 3/4SM BR BKN001 OVC075 06/05 A3000 RMK AO2 LTG DSNT S
KAIT 180815Z AUTO 00000KT 1 1/4SM BR BKN001 07/06 A3000 RMK AO2
KAIT 180755Z AUTO 00000KT 5SM BR CLR 06/04 A2999 RMK AO2 LTG DSNT S
KAIT 180735Z AUTO 00000KT 1/2SM FG VV005 06/05 A2999 RMK AO2 LTG DSNT SE
KAIT 180715Z AUTO 00000KT 1SM BR VV007 06/05 A2999 RMK AO2
KAIT 180655Z AUTO 00000KT 1 1/2SM BR VV007 06/05 A2999 RMK AO2
KAIT 180635Z AUTO 00000KT 7SM CLR 07/06 A2999 RMK AO2
KAIT 180615Z AUTO 00000KT 4SM BR CLR 07/06 A2999 RMK AO2
KAIT 180555Z AUTO 00000KT 7SM SCT095 07/06 A3000 RMK AO2
KAIT 180535Z AUTO 00000KT 10SM BKN095 07/06 A3000 RMK AO2
KAIT 180515Z AUTO 00000KT 7SM BKN095 07/06 A3000 RMK AO2
KAIT 180455Z AUTO 00000KT 3SM BR SCT095 07/06 A3000 RMK AO2 LTG DSNT S
KAIT 180435Z AUTO 00000KT 7SM CLR 07/06 A3001 RMK AO2
KAIT 180415Z AUTO 00000KT 1 1/4SM BR VV007 07/06 A3001 RMK AO2
KAIT 180355Z AUTO 00000KT 1 1/4SM BR VV007 08/07 A3001 RMK AO2
KAIT 180335Z AUTO 00000KT 10SM CLR 07/06 A3001 RMK AO2
KAIT 180315Z AUTO 00000KT 10SM CLR 08/07 A3001 RMK AO2
KAIT 180255Z AUTO 00000KT 1 3/4SM BR VV007 08/07 A3002 RMK AO2
KAIT 180235Z AUTO 00000KT 10SM CLR 08/07 A3001 RMK AO2
KAIT 180215Z AUTO 00000KT 10SM CLR 08/07 A3000 RMK AO2
KAIT 180155Z AUTO 00000KT 10SM CLR 09/08 A3000 RMK AO2
KAIT 180135Z AUTO 00000KT 10SM CLR 09/08 A2999 RMK AO2
KAIT 180115Z AUTO 00000KT 10SM CLR 09/08 A2998 RMK AO2
KAIT 180055Z AUTO 00000KT 10SM CLR 11/09 A2998 RMK AO2
KAIT 180035Z AUTO 00000KT 10SM CLR 12/09 A2997 RMK AO2
KAIT 180015Z AUTO 00000KT 10SM CLR 12/09 A2997 RMK AO2
KAIT 172355Z AUTO 00000KT 10SM CLR 13/09 A2997 RMK AO2
KAIT 172335Z AUTO 00000KT 10SM SCT110 14/09 A2997 RMK AO2
KAIT 172315Z AUTO 00000KT 10SM SCT110 14/09 A2998 RMK AO2
KAIT 172255Z AUTO 00000KT 10SM CLR 14/09 A2998 RMK AO2
KAIT 172235Z AUTO 01008KT 10SM CLR 15/09 A2998 RMK AO2
KAIT 172215Z AUTO 02010KT 10SM CLR 15/09 A2998 RMK AO2
KAIT 172155Z AUTO 03008KT 10SM CLR 15/09 A2998 RMK AO2
KAIT 172135Z AUTO 00000KT 10SM CLR 14/09 A2997 RMK AO2
KAIT 172115Z AUTO 00000KT 10SM CLR 15/09 A2998 RMK AO2
KAIT 172055Z AUTO 00000KT 10SM SCT028 14/09 A3000 RMK AO2
KAIT 172035Z AUTO 00000KT 10SM BKN026 13/09 A3000 RMK AO2
KAIT 172015Z AUTO 00000KT 10SM BKN023 OVC029 12/09 A3001 RMK AO2
KAIT 171955Z AUTO 30003KT 10SM SCT021 12/09 A3003 RMK AO2
KAIT 171935Z AUTO 00000KT 10SM -RA CLR 12/09 A2999 RMK AO2
KAIT 171915Z AUTO 00000KT 10SM SCT025 13/08 A3003 RMK AO2
KAIT 171855Z AUTO 24006KT 10SM SCT025 13/09 A3005 RMK AO2 LTG DSNT S
KAIT 171835Z AUTO 00000KT 10SM CLR 13/09 A3001 RMK AO2 LTG DSNT S
KAIT 171815Z AUTO 00000KT 10SM CLR 13/08 A2997 RMK AO2 LTG DSNT S
KAIT 171755Z AUTO 00000KT 10SM CLR 13/08 A2997 RMK AO2 LTG DSNT S
KAIT 171735Z AUTO 00000KT 10SM CLR 14/08 A2998 RMK AO2 LTG DSNT SW
KAIT 171715Z AUTO 00000KT 10SM CLR 13/08 A3000 RMK AO2 LTG DSNT SW
KAIT 171655Z AUTO 35005KT 10SM SCT019 14/08 A3001 RMK AO2
KAIT 171635Z AUTO 33005KT 10SM BKN019 14/09 A2998 RMK AO2
KAIT 171615Z AUTO 00000KT 10SM BKN017 14/09 A2997 RMK AO2
KAIT 171555Z AUTO 36008KT 10SM SCT017 14/09 A2997 RMK AO2
KAIT 171535Z AUTO 36009G14KT 10SM SCT015 13/09 A2999 RMK AO2
KAIT 171515Z AUTO 34010KT 10SM BKN015 13/08 A2998 RMK AO2
KAIT 171455Z AUTO 31005KT 10SM OVC015 12/08 A2998 RMK AO2
KAIT 171435Z AUTO 34009G14KT 10SM OVC013 13/08 A2998 RMK AO2
KAIT 171415Z AUTO 32007KT 10SM OVC013 12/08 A2997 RMK AO2
KAIT 171355Z AUTO 32006KT 10SM OVC013 11/08 A2996 RMK AO2
KAIT 171335Z AUTO 33006KT 10SM OVC013 11/08 A2996 RMK AO2
KAIT 171315Z AUTO 32005KT 10SM OVC013 11/08 A2997 RMK AO2
KAIT 171255Z AUTO 00000KT 10SM BKN013 11/08 A2997 RMK AO2
KAIT 171235Z AUTO 00000KT 10SM BKN013 11/08 A2995 RMK AO2
KAIT 171215Z AUTO 00000KT 10SM OVC013 11/09 A2994 RMK AO2
KAIT 171155Z AUTO 00000KT 10SM OVC013 11/09 A2994 RMK AO2
KAIT 171135Z AUTO 32004KT 10SM OVC013 12/09 A2993 RMK AO2
KAIT 171115Z AUTO 31004KT 10SM OVC013 12/09 A2993 RMK AO2
KAIT 171055Z AUTO 00000KT 10SM SCT013 12/09 A2992 RMK AO2
KAIT 171035Z AUTO 32004KT 10SM SCT013 12/10 A2992 RMK AO2
KAIT 171015Z AUTO 00000KT 10SM SCT013 12/11 A2991 RMK AO2
KAIT 170955Z AUTO 00000KT 10SM SCT013 13/11 A2990 RMK AO2